sensor_id;sensor_type;location;lat;lon;timestamp;P1;durP1;ratioP1;P2;durP2;ratioP2
20283;SDS011;10301;50.832;4.080;2023-05-16T00:01:53;16.17;;;2.47;;
20283;SDS011;10301;50.832;4.080;2023-05-16T00:04:18;17.30;;;2.63;;
20283;SDS011;10301;50.832;4.080;2023-05-16T00:06:45;16.77;;;2.77;;
20283;SDS011;10301;50.832;4.080;2023-05-16T00:09:11;15.33;;;2.73;;
20283;SDS011;10301;50.832;4.080;2023-05-16T00:11:36;19.30;;;3.33;;
20283;SDS011;10301;50.832;4.080;2023-05-16T00:14:02;17.90;;;2.37;;
20283;SDS011;10301;50.832;4.080;2023-05-16T00:16:28;13.83;;;2.43;;
20283;SDS011;10301;50.832;4.080;2023-05-16T00:18:54;19.93;;;2.80;;
20283;SDS011;10301;50.832;4.080;2023-05-16T00:21:21;12.47;;;2.33;;
20283;SDS011;10301;50.832;4.080;2023-05-16T00:23:47;15.63;;;2.07;;
20283;SDS011;10301;50.832;4.080;2023-05-16T00:26:13;16.93;;;2.70;;
20283;SDS011;10301;50.832;4.080;2023-05-16T00:28:39;16.37;;;2.70;;
20283;SDS011;10301;50.832;4.080;2023-05-16T00:31:05;10.37;;;2.13;;
20283;SDS011;10301;50.832;4.080;2023-05-16T00:33:30;22.93;;;2.67;;
20283;SDS011;10301;50.832;4.080;2023-05-16T00:35:56;11.87;;;2.30;;
20283;SDS011;10301;50.832;4.080;2023-05-16T00:38:23;18.77;;;2.77;;
20283;SDS011;10301;50.832;4.080;2023-05-16T00:40:49;16.70;;;2.40;;
20283;SDS011;10301;50.832;4.080;2023-05-16T00:43:15;12.80;;;2.30;;
20283;SDS011;10301;50.832;4.080;2023-05-16T00:45:41;16.40;;;2.53;;
20283;SDS011;10301;50.832;4.080;2023-05-16T00:48:07;16.43;;;2.37;;
20283;SDS011;10301;50.832;4.080;2023-05-16T00:50:33;16.07;;;3.17;;
20283;SDS011;10301;50.832;4.080;2023-05-16T00:53:00;14.60;;;2.80;;
20283;SDS011;10301;50.832;4.080;2023-05-16T00:55:26;14.53;;;2.60;;
20283;SDS011;10301;50.832;4.080;2023-05-16T00:57:52;16.20;;;3.47;;
20283;SDS011;10301;50.832;4.080;2023-05-16T01:00:18;13.80;;;2.60;;
20283;SDS011;10301;50.832;4.080;2023-05-16T01:02:44;15.80;;;2.30;;
20283;SDS011;10301;50.832;4.080;2023-05-16T01:05:11;15.80;;;2.67;;
20283;SDS011;10301;50.832;4.080;2023-05-16T01:07:37;13.60;;;2.43;;
20283;SDS011;10301;50.832;4.080;2023-05-16T01:10:03;18.67;;;2.30;;
20283;SDS011;10301;50.832;4.080;2023-05-16T01:15:12;16.47;;;2.70;;
20283;SDS011;10301;50.832;4.080;2023-05-16T01:20:42;15.60;;;2.03;;
20283;SDS011;10301;50.832;4.080;2023-05-16T01:26:21;12.60;;;2.30;;
20283;SDS011;10301;50.832;4.080;2023-05-16T01:28:49;14.97;;;2.50;;
20283;SDS011;10301;50.832;4.080;2023-05-16T01:31:15;10.83;;;1.90;;
20283;SDS011;10301;50.832;4.080;2023-05-16T01:33:42;16.13;;;2.83;;
20283;SDS011;10301;50.832;4.080;2023-05-16T01:36:10;15.90;;;2.90;;
20283;SDS011;10301;50.832;4.080;2023-05-16T01:41:20;13.60;;;2.80;;
20283;SDS011;10301;50.832;4.080;2023-05-16T01:44:04;23.83;;;3.50;;
20283;SDS011;10301;50.832;4.080;2023-05-16T01:46:36;16.83;;;3.23;;
20283;SDS011;10301;50.832;4.080;2023-05-16T01:52:11;19.07;;;2.67;;
20283;SDS011;10301;50.832;4.080;2023-05-16T01:54:42;14.97;;;2.60;;
20283;SDS011;10301;50.832;4.080;2023-05-16T01:57:09;10.73;;;2.50;;
20283;SDS011;10301;50.832;4.080;2023-05-16T01:59:38;21.00;;;3.53;;
20283;SDS011;10301;50.832;4.080;2023-05-16T02:02:06;17.60;;;3.43;;
20283;SDS011;10301;50.832;4.080;2023-05-16T02:04:32;18.23;;;3.60;;
20283;SDS011;10301;50.832;4.080;2023-05-16T02:06:58;9.47;;;2.27;;
20283;SDS011;10301;50.832;4.080;2023-05-16T02:09:25;16.10;;;2.70;;
20283;SDS011;10301;50.832;4.080;2023-05-16T02:11:51;20.27;;;2.87;;
20283;SDS011;10301;50.832;4.080;2023-05-16T02:14:17;15.83;;;3.30;;
20283;SDS011;10301;50.832;4.080;2023-05-16T02:16:43;18.73;;;3.20;;
20283;SDS011;10301;50.832;4.080;2023-05-16T02:19:09;18.17;;;3.43;;
20283;SDS011;10301;50.832;4.080;2023-05-16T02:21:34;13.53;;;3.00;;
20283;SDS011;10301;50.832;4.080;2023-05-16T02:24:00;20.97;;;3.10;;
20283;SDS011;10301;50.832;4.080;2023-05-16T02:26:26;18.63;;;2.87;;
20283;SDS011;10301;50.832;4.080;2023-05-16T02:28:51;14.37;;;3.27;;
20283;SDS011;10301;50.832;4.080;2023-05-16T02:31:26;17.23;;;3.63;;
20283;SDS011;10301;50.832;4.080;2023-05-16T02:33:53;15.33;;;3.33;;
20283;SDS011;10301;50.832;4.080;2023-05-16T02:36:19;17.07;;;3.20;;
20283;SDS011;10301;50.832;4.080;2023-05-16T02:38:45;18.97;;;3.00;;
20283;SDS011;10301;50.832;4.080;2023-05-16T02:41:11;18.23;;;3.00;;
20283;SDS011;10301;50.832;4.080;2023-05-16T02:43:37;12.80;;;2.77;;
20283;SDS011;10301;50.832;4.080;2023-05-16T02:46:18;14.53;;;3.20;;
20283;SDS011;10301;50.832;4.080;2023-05-16T02:48:57;16.73;;;3.57;;
20283;SDS011;10301;50.832;4.080;2023-05-16T02:51:23;17.77;;;3.17;;
20283;SDS011;10301;50.832;4.080;2023-05-16T02:53:50;18.07;;;3.33;;
20283;SDS011;10301;50.832;4.080;2023-05-16T02:56:16;16.23;;;3.20;;
20283;SDS011;10301;50.832;4.080;2023-05-16T02:58:45;14.07;;;3.17;;
20283;SDS011;10301;50.832;4.080;2023-05-16T03:01:12;17.33;;;2.90;;
20283;SDS011;10301;50.832;4.080;2023-05-16T03:03:38;11.67;;;3.10;;
20283;SDS011;10301;50.832;4.080;2023-05-16T03:06:04;16.80;;;2.93;;
20283;SDS011;10301;50.832;4.080;2023-05-16T03:08:30;14.63;;;2.73;;
20283;SDS011;10301;50.832;4.080;2023-05-16T03:10:56;16.13;;;3.63;;
20283;SDS011;10301;50.832;4.080;2023-05-16T03:13:21;13.27;;;3.27;;
20283;SDS011;10301;50.832;4.080;2023-05-16T03:15:47;13.87;;;3.17;;
20283;SDS011;10301;50.832;4.080;2023-05-16T03:18:13;13.37;;;2.97;;
20283;SDS011;10301;50.832;4.080;2023-05-16T03:20:39;12.37;;;3.43;;
20283;SDS011;10301;50.832;4.080;2023-05-16T03:23:05;11.87;;;3.27;;
20283;SDS011;10301;50.832;4.080;2023-05-16T03:25:33;13.93;;;3.43;;
20283;SDS011;10301;50.832;4.080;2023-05-16T03:28:00;15.23;;;3.90;;
20283;SDS011;10301;50.832;4.080;2023-05-16T03:30:29;15.30;;;3.37;;
20283;SDS011;10301;50.832;4.080;2023-05-16T03:32:55;17.17;;;4.00;;
20283;SDS011;10301;50.832;4.080;2023-05-16T03:35:21;13.43;;;3.43;;
20283;SDS011;10301;50.832;4.080;2023-05-16T03:37:48;13.90;;;3.50;;
20283;SDS011;10301;50.832;4.080;2023-05-16T03:40:14;14.83;;;3.60;;
20283;SDS011;10301;50.832;4.080;2023-05-16T03:42:40;11.93;;;3.50;;
20283;SDS011;10301;50.832;4.080;2023-05-16T03:45:05;17.03;;;3.40;;
20283;SDS011;10301;50.832;4.080;2023-05-16T03:47:32;14.00;;;3.03;;
20283;SDS011;10301;50.832;4.080;2023-05-16T03:49:58;18.83;;;3.97;;
20283;SDS011;10301;50.832;4.080;2023-05-16T03:52:23;16.30;;;4.10;;
20283;SDS011;10301;50.832;4.080;2023-05-16T03:54:49;16.47;;;3.20;;
20283;SDS011;10301;50.832;4.080;2023-05-16T03:57:15;26.90;;;4.10;;
20283;SDS011;10301;50.832;4.080;2023-05-16T03:59:40;10.10;;;3.47;;
20283;SDS011;10301;50.832;4.080;2023-05-16T04:02:06;9.90;;;2.93;;
20283;SDS011;10301;50.832;4.080;2023-05-16T04:04:32;17.37;;;3.87;;
20283;SDS011;10301;50.832;4.080;2023-05-16T04:06:59;14.03;;;3.73;;
20283;SDS011;10301;50.832;4.080;2023-05-16T04:09:25;16.63;;;3.83;;
20283;SDS011;10301;50.832;4.080;2023-05-16T04:11:51;14.60;;;3.77;;
20283;SDS011;10301;50.832;4.080;2023-05-16T04:14:16;18.57;;;4.10;;
20283;SDS011;10301;50.832;4.080;2023-05-16T04:16:42;21.27;;;5.47;;
20283;SDS011;10301;50.832;4.080;2023-05-16T04:19:08;16.67;;;5.03;;
20283;SDS011;10301;50.832;4.080;2023-05-16T04:21:33;19.43;;;4.33;;
20283;SDS011;10301;50.832;4.080;2023-05-16T04:24:00;20.20;;;5.87;;
20283;SDS011;10301;50.832;4.080;2023-05-16T04:26:26;16.50;;;4.83;;
20283;SDS011;10301;50.832;4.080;2023-05-16T04:28:51;19.37;;;4.80;;
20283;SDS011;10301;50.832;4.080;2023-05-16T04:31:17;17.20;;;5.27;;
20283;SDS011;10301;50.832;4.080;2023-05-16T04:33:43;17.67;;;5.33;;
20283;SDS011;10301;50.832;4.080;2023-05-16T04:36:09;15.63;;;5.17;;
20283;SDS011;10301;50.832;4.080;2023-05-16T04:38:35;19.70;;;5.37;;
20283;SDS011;10301;50.832;4.080;2023-05-16T04:41:01;19.03;;;5.60;;
20283;SDS011;10301;50.832;4.080;2023-05-16T04:43:27;20.47;;;5.47;;
20283;SDS011;10301;50.832;4.080;2023-05-16T04:45:54;20.80;;;5.53;;
20283;SDS011;10301;50.832;4.080;2023-05-16T04:48:19;24.77;;;6.10;;
20283;SDS011;10301;50.832;4.080;2023-05-16T04:50:45;17.47;;;5.57;;
20283;SDS011;10301;50.832;4.080;2023-05-16T04:53:11;18.97;;;5.80;;
20283;SDS011;10301;50.832;4.080;2023-05-16T04:55:39;20.43;;;5.60;;
20283;SDS011;10301;50.832;4.080;2023-05-16T04:58:04;23.87;;;6.20;;
20283;SDS011;10301;50.832;4.080;2023-05-16T05:00:30;17.23;;;5.97;;
20283;SDS011;10301;50.832;4.080;2023-05-16T05:02:56;17.77;;;5.97;;
20283;SDS011;10301;50.832;4.080;2023-05-16T05:05:22;21.00;;;5.87;;
20283;SDS011;10301;50.832;4.080;2023-05-16T05:07:47;17.47;;;6.17;;
20283;SDS011;10301;50.832;4.080;2023-05-16T05:10:13;23.90;;;6.63;;
20283;SDS011;10301;50.832;4.080;2023-05-16T05:12:39;15.93;;;5.83;;
20283;SDS011;10301;50.832;4.080;2023-05-16T05:15:05;18.73;;;5.77;;
20283;SDS011;10301;50.832;4.080;2023-05-16T05:17:31;18.70;;;5.97;;
20283;SDS011;10301;50.832;4.080;2023-05-16T05:19:56;18.63;;;5.60;;
20283;SDS011;10301;50.832;4.080;2023-05-16T05:22:22;22.27;;;6.53;;
20283;SDS011;10301;50.832;4.080;2023-05-16T05:24:48;20.90;;;5.37;;
20283;SDS011;10301;50.832;4.080;2023-05-16T05:27:13;25.27;;;5.87;;
20283;SDS011;10301;50.832;4.080;2023-05-16T05:29:39;20.43;;;5.73;;
20283;SDS011;10301;50.832;4.080;2023-05-16T05:32:05;17.10;;;6.30;;
20283;SDS011;10301;50.832;4.080;2023-05-16T05:34:32;16.97;;;5.27;;
20283;SDS011;10301;50.832;4.080;2023-05-16T05:36:58;18.77;;;5.30;;
20283;SDS011;10301;50.832;4.080;2023-05-16T05:39:23;21.07;;;5.57;;
20283;SDS011;10301;50.832;4.080;2023-05-16T05:41:50;19.07;;;6.30;;
20283;SDS011;10301;50.832;4.080;2023-05-16T05:44:16;18.53;;;6.17;;
20283;SDS011;10301;50.832;4.080;2023-05-16T05:46:41;19.73;;;5.77;;
20283;SDS011;10301;50.832;4.080;2023-05-16T05:49:07;19.97;;;5.73;;
20283;SDS011;10301;50.832;4.080;2023-05-16T05:51:33;15.97;;;4.77;;
20283;SDS011;10301;50.832;4.080;2023-05-16T05:53:59;18.97;;;5.07;;
20283;SDS011;10301;50.832;4.080;2023-05-16T05:56:26;20.90;;;4.90;;
20283;SDS011;10301;50.832;4.080;2023-05-16T05:58:52;16.70;;;4.77;;
20283;SDS011;10301;50.832;4.080;2023-05-16T06:01:18;17.03;;;5.27;;
20283;SDS011;10301;50.832;4.080;2023-05-16T06:03:45;19.13;;;5.33;;
20283;SDS011;10301;50.832;4.080;2023-05-16T06:06:11;16.97;;;4.13;;
20283;SDS011;10301;50.832;4.080;2023-05-16T06:08:36;22.93;;;5.23;;
20283;SDS011;10301;50.832;4.080;2023-05-16T06:11:02;18.77;;;4.77;;
20283;SDS011;10301;50.832;4.080;2023-05-16T06:13:28;23.30;;;4.87;;
20283;SDS011;10301;50.832;4.080;2023-05-16T06:15:53;11.82;;;3.63;;
20283;SDS011;10301;50.832;4.080;2023-05-16T06:18:19;15.83;;;3.43;;
20283;SDS011;10301;50.832;4.080;2023-05-16T06:20:45;12.07;;;3.20;;
20283;SDS011;10301;50.832;4.080;2023-05-16T06:23:11;20.47;;;3.97;;
20283;SDS011;10301;50.832;4.080;2023-05-16T06:25:37;15.80;;;3.60;;
20283;SDS011;10301;50.832;4.080;2023-05-16T06:28:02;14.50;;;3.37;;
20283;SDS011;10301;50.832;4.080;2023-05-16T06:30:28;17.23;;;3.05;;
20283;SDS011;10301;50.832;4.080;2023-05-16T06:32:54;13.73;;;3.13;;
20283;SDS011;10301;50.832;4.080;2023-05-16T06:35:20;10.50;;;2.58;;
20283;SDS011;10301;50.832;4.080;2023-05-16T06:37:46;12.20;;;2.85;;
20283;SDS011;10301;50.832;4.080;2023-05-16T06:40:11;15.02;;;2.90;;
20283;SDS011;10301;50.832;4.080;2023-05-16T06:42:38;11.35;;;2.78;;
20283;SDS011;10301;50.832;4.080;2023-05-16T06:45:04;12.73;;;2.78;;
20283;SDS011;10301;50.832;4.080;2023-05-16T06:47:30;9.53;;;2.53;;
20283;SDS011;10301;50.832;4.080;2023-05-16T06:49:55;11.98;;;2.28;;
20283;SDS011;10301;50.832;4.080;2023-05-16T06:52:21;12.18;;;2.35;;
20283;SDS011;10301;50.832;4.080;2023-05-16T06:54:47;6.45;;;1.58;;
20283;SDS011;10301;50.832;4.080;2023-05-16T06:57:12;13.95;;;2.28;;
20283;SDS011;10301;50.832;4.080;2023-05-16T06:59:38;11.02;;;2.50;;
20283;SDS011;10301;50.832;4.080;2023-05-16T07:02:04;8.52;;;1.60;;
20283;SDS011;10301;50.832;4.080;2023-05-16T07:04:30;12.38;;;2.13;;
20283;SDS011;10301;50.832;4.080;2023-05-16T07:06:56;12.32;;;2.17;;
20283;SDS011;10301;50.832;4.080;2023-05-16T07:09:22;7.78;;;1.30;;
20283;SDS011;10301;50.832;4.080;2023-05-16T07:11:48;11.65;;;2.00;;
20283;SDS011;10301;50.832;4.080;2023-05-16T07:14:14;12.98;;;1.70;;
20283;SDS011;10301;50.832;4.080;2023-05-16T07:16:39;10.10;;;1.45;;
20283;SDS011;10301;50.832;4.080;2023-05-16T07:19:05;7.38;;;1.27;;
20283;SDS011;10301;50.832;4.080;2023-05-16T07:21:32;10.60;;;1.48;;
20283;SDS011;10301;50.832;4.080;2023-05-16T07:23:57;11.57;;;1.63;;
20283;SDS011;10301;50.832;4.080;2023-05-16T07:26:23;10.90;;;2.03;;
20283;SDS011;10301;50.832;4.080;2023-05-16T07:28:49;11.77;;;1.83;;
20283;SDS011;10301;50.832;4.080;2023-05-16T07:31:15;7.25;;;1.60;;
20283;SDS011;10301;50.832;4.080;2023-05-16T07:33:41;10.13;;;1.70;;
20283;SDS011;10301;50.832;4.080;2023-05-16T07:36:07;9.75;;;1.38;;
20283;SDS011;10301;50.832;4.080;2023-05-16T07:38:33;12.88;;;1.83;;
20283;SDS011;10301;50.832;4.080;2023-05-16T07:40:59;11.20;;;1.67;;
20283;SDS011;10301;50.832;4.080;2023-05-16T07:43:25;7.63;;;1.35;;
20283;SDS011;10301;50.832;4.080;2023-05-16T07:45:51;8.73;;;1.65;;
20283;SDS011;10301;50.832;4.080;2023-05-16T07:48:17;9.15;;;1.50;;
20283;SDS011;10301;50.832;4.080;2023-05-16T07:50:43;11.60;;;1.58;;
20283;SDS011;10301;50.832;4.080;2023-05-16T07:53:08;6.00;;;1.50;;
20283;SDS011;10301;50.832;4.080;2023-05-16T07:55:34;5.65;;;1.23;;
20283;SDS011;10301;50.832;4.080;2023-05-16T07:58:00;8.65;;;1.60;;
20283;SDS011;10301;50.832;4.080;2023-05-16T08:00:25;8.20;;;1.23;;
20283;SDS011;10301;50.832;4.080;2023-05-16T08:02:51;9.15;;;1.75;;
20283;SDS011;10301;50.832;4.080;2023-05-16T08:05:17;7.72;;;1.52;;
20283;SDS011;10301;50.832;4.080;2023-05-16T08:07:43;9.45;;;1.30;;
20283;SDS011;10301;50.832;4.080;2023-05-16T08:10:08;7.68;;;1.30;;
20283;SDS011;10301;50.832;4.080;2023-05-16T08:12:34;8.75;;;1.30;;
20283;SDS011;10301;50.832;4.080;2023-05-16T08:15:00;13.52;;;1.30;;
20283;SDS011;10301;50.832;4.080;2023-05-16T08:17:27;7.53;;;1.10;;
20283;SDS011;10301;50.832;4.080;2023-05-16T08:19:52;6.97;;;1.40;;
20283;SDS011;10301;50.832;4.080;2023-05-16T08:22:18;7.80;;;1.20;;
20283;SDS011;10301;50.832;4.080;2023-05-16T08:24:44;6.10;;;1.40;;
20283;SDS011;10301;50.832;4.080;2023-05-16T08:27:09;8.82;;;1.33;;
20283;SDS011;10301;50.832;4.080;2023-05-16T08:29:36;5.43;;;1.77;;
20283;SDS011;10301;50.832;4.080;2023-05-16T08:32:01;8.32;;;1.30;;
20283;SDS011;10301;50.832;4.080;2023-05-16T08:34:29;12.13;;;1.70;;
20283;SDS011;10301;50.832;4.080;2023-05-16T08:36:56;7.53;;;1.73;;
20283;SDS011;10301;50.832;4.080;2023-05-16T08:39:21;7.35;;;1.30;;
20283;SDS011;10301;50.832;4.080;2023-05-16T08:41:47;7.13;;;1.25;;
20283;SDS011;10301;50.832;4.080;2023-05-16T08:44:13;8.57;;;1.20;;
20283;SDS011;10301;50.832;4.080;2023-05-16T08:46:47;7.07;;;1.35;;
20283;SDS011;10301;50.832;4.080;2023-05-16T08:49:16;10.25;;;1.52;;
20283;SDS011;10301;50.832;4.080;2023-05-16T08:51:43;5.95;;;0.93;;
20283;SDS011;10301;50.832;4.080;2023-05-16T08:54:12;10.35;;;1.50;;
20283;SDS011;10301;50.832;4.080;2023-05-16T08:56:39;9.10;;;1.30;;
20283;SDS011;10301;50.832;4.080;2023-05-16T08:59:06;8.57;;;1.48;;
20283;SDS011;10301;50.832;4.080;2023-05-16T09:01:32;7.75;;;1.20;;
20283;SDS011;10301;50.832;4.080;2023-05-16T09:03:58;4.20;;;1.10;;
20283;SDS011;10301;50.832;4.080;2023-05-16T09:06:25;6.85;;;1.02;;
20283;SDS011;10301;50.832;4.080;2023-05-16T09:08:54;5.65;;;0.93;;
20283;SDS011;10301;50.832;4.080;2023-05-16T09:11:21;6.28;;;1.17;;
20283;SDS011;10301;50.832;4.080;2023-05-16T09:13:47;8.18;;;1.20;;
20283;SDS011;10301;50.832;4.080;2023-05-16T09:16:19;8.18;;;1.30;;
20283;SDS011;10301;50.832;4.080;2023-05-16T09:18:46;7.57;;;1.38;;
20283;SDS011;10301;50.832;4.080;2023-05-16T09:21:33;4.97;;;1.05;;
20283;SDS011;10301;50.832;4.080;2023-05-16T09:24:03;5.65;;;1.10;;
20283;SDS011;10301;50.832;4.080;2023-05-16T09:26:31;6.55;;;1.00;;
20283;SDS011;10301;50.832;4.080;2023-05-16T09:28:57;5.88;;;1.17;;
20283;SDS011;10301;50.832;4.080;2023-05-16T09:31:24;6.60;;;1.00;;
20283;SDS011;10301;50.832;4.080;2023-05-16T09:33:59;5.82;;;1.25;;
20283;SDS011;10301;50.832;4.080;2023-05-16T09:36:25;7.55;;;1.15;;
20283;SDS011;10301;50.832;4.080;2023-05-16T09:38:51;5.18;;;0.80;;
20283;SDS011;10301;50.832;4.080;2023-05-16T09:41:17;5.63;;;0.90;;
20283;SDS011;10301;50.832;4.080;2023-05-16T09:43:43;5.68;;;1.27;;
20283;SDS011;10301;50.832;4.080;2023-05-16T09:46:12;7.38;;;1.30;;
20283;SDS011;10301;50.832;4.080;2023-05-16T09:48:44;9.55;;;1.50;;
20283;SDS011;10301;50.832;4.080;2023-05-16T09:51:11;6.75;;;1.00;;
20283;SDS011;10301;50.832;4.080;2023-05-16T09:53:38;4.78;;;1.25;;
20283;SDS011;10301;50.832;4.080;2023-05-16T09:58:33;5.82;;;1.35;;
20283;SDS011;10301;50.832;4.080;2023-05-16T10:01:00;5.88;;;1.02;;
20283;SDS011;10301;50.832;4.080;2023-05-16T10:03:26;7.90;;;0.93;;
20283;SDS011;10301;50.832;4.080;2023-05-16T10:05:53;8.00;;;0.95;;
20283;SDS011;10301;50.832;4.080;2023-05-16T10:08:20;4.18;;;0.82;;
20283;SDS011;10301;50.832;4.080;2023-05-16T10:10:47;6.00;;;1.25;;
20283;SDS011;10301;50.832;4.080;2023-05-16T10:13:17;6.20;;;1.00;;
20283;SDS011;10301;50.832;4.080;2023-05-16T10:15:45;7.50;;;1.20;;
20283;SDS011;10301;50.832;4.080;2023-05-16T10:18:12;8.57;;;1.10;;
20283;SDS011;10301;50.832;4.080;2023-05-16T10:20:42;7.72;;;1.38;;
20283;SDS011;10301;50.832;4.080;2023-05-16T10:23:10;4.78;;;1.05;;
20283;SDS011;10301;50.832;4.080;2023-05-16T10:25:39;5.40;;;1.00;;
20283;SDS011;10301;50.832;4.080;2023-05-16T10:28:07;5.05;;;0.88;;
20283;SDS011;10301;50.832;4.080;2023-05-16T10:30:33;4.20;;;1.00;;
20283;SDS011;10301;50.832;4.080;2023-05-16T10:33:02;4.20;;;1.05;;
20283;SDS011;10301;50.832;4.080;2023-05-16T10:35:28;6.55;;;1.02;;
20283;SDS011;10301;50.832;4.080;2023-05-16T10:37:58;5.10;;;1.35;;
20283;SDS011;10301;50.832;4.080;2023-05-16T10:40:25;5.97;;;0.93;;
20283;SDS011;10301;50.832;4.080;2023-05-16T10:42:56;8.38;;;0.90;;
20283;SDS011;10301;50.832;4.080;2023-05-16T10:45:22;10.85;;;1.08;;
20283;SDS011;10301;50.832;4.080;2023-05-16T10:58:49;7.45;;;1.25;;
20283;SDS011;10301;50.832;4.080;2023-05-16T11:04:14;4.78;;;0.90;;
20283;SDS011;10301;50.832;4.080;2023-05-16T11:16:49;4.72;;;1.13;;
20283;SDS011;10301;50.832;4.080;2023-05-16T11:22:08;4.97;;;1.13;;
20283;SDS011;10301;50.832;4.080;2023-05-16T11:24:36;7.95;;;1.30;;
20283;SDS011;10301;50.832;4.080;2023-05-16T11:27:03;6.15;;;1.30;;
20283;SDS011;10301;50.832;4.080;2023-05-16T11:29:33;3.05;;;0.90;;
20283;SDS011;10301;50.832;4.080;2023-05-16T11:32:00;4.78;;;1.13;;
20283;SDS011;10301;50.832;4.080;2023-05-16T11:34:30;5.40;;;1.08;;
20283;SDS011;10301;50.832;4.080;2023-05-16T11:36:59;8.18;;;0.98;;
20283;SDS011;10301;50.832;4.080;2023-05-16T11:39:26;5.95;;;1.38;;
20283;SDS011;10301;50.832;4.080;2023-05-16T11:41:54;6.38;;;1.05;;
20283;SDS011;10301;50.832;4.080;2023-05-16T11:44:20;5.72;;;1.60;;
20283;SDS011;10301;50.832;4.080;2023-05-16T11:46:46;7.30;;;1.30;;
20283;SDS011;10301;50.832;4.080;2023-05-16T11:49:11;5.28;;;1.25;;
20283;SDS011;10301;50.832;4.080;2023-05-16T11:51:41;3.58;;;0.85;;
20283;SDS011;10301;50.832;4.080;2023-05-16T11:54:10;8.68;;;1.40;;
20283;SDS011;10301;50.832;4.080;2023-05-16T11:56:37;6.35;;;1.20;;
20283;SDS011;10301;50.832;4.080;2023-05-16T11:59:04;7.10;;;1.40;;
20283;SDS011;10301;50.832;4.080;2023-05-16T12:01:34;7.53;;;1.50;;
20283;SDS011;10301;50.832;4.080;2023-05-16T12:04:07;5.00;;;1.00;;
20283;SDS011;10301;50.832;4.080;2023-05-16T12:06:34;4.85;;;0.95;;
20283;SDS011;10301;50.832;4.080;2023-05-16T12:09:01;4.95;;;1.00;;
20283;SDS011;10301;50.832;4.080;2023-05-16T12:11:35;7.07;;;1.10;;
20283;SDS011;10301;50.832;4.080;2023-05-16T12:14:02;4.40;;;1.00;;
20283;SDS011;10301;50.832;4.080;2023-05-16T12:16:29;6.57;;;1.08;;
20283;SDS011;10301;50.832;4.080;2023-05-16T12:18:55;6.80;;;1.20;;
20283;SDS011;10301;50.832;4.080;2023-05-16T12:21:21;4.68;;;1.25;;
20283;SDS011;10301;50.832;4.080;2023-05-16T12:23:47;3.95;;;1.00;;
20283;SDS011;10301;50.832;4.080;2023-05-16T12:26:12;5.88;;;1.50;;
20283;SDS011;10301;50.832;4.080;2023-05-16T12:28:38;4.63;;;0.80;;
20283;SDS011;10301;50.832;4.080;2023-05-16T12:31:10;4.60;;;0.90;;
20283;SDS011;10301;50.832;4.080;2023-05-16T12:33:43;4.03;;;0.73;;
20283;SDS011;10301;50.832;4.080;2023-05-16T12:36:12;4.88;;;0.70;;
20283;SDS011;10301;50.832;4.080;2023-05-16T12:38:39;2.92;;;0.80;;
20283;SDS011;10301;50.832;4.080;2023-05-16T12:41:10;5.90;;;1.15;;
20283;SDS011;10301;50.832;4.080;2023-05-16T12:43:35;5.70;;;0.90;;
20283;SDS011;10301;50.832;4.080;2023-05-16T12:46:01;4.97;;;1.10;;
20283;SDS011;10301;50.832;4.080;2023-05-16T12:48:33;4.55;;;0.90;;
20283;SDS011;10301;50.832;4.080;2023-05-16T12:51:12;5.20;;;1.00;;
20283;SDS011;10301;50.832;4.080;2023-05-16T12:53:42;8.50;;;1.20;;
20283;SDS011;10301;50.832;4.080;2023-05-16T12:56:10;6.57;;;0.88;;
20283;SDS011;10301;50.832;4.080;2023-05-16T12:58:37;6.97;;;1.20;;
20283;SDS011;10301;50.832;4.080;2023-05-16T13:01:03;7.15;;;1.50;;
20283;SDS011;10301;50.832;4.080;2023-05-16T13:03:30;4.28;;;1.00;;
20283;SDS011;10301;50.832;4.080;2023-05-16T13:05:57;6.97;;;1.30;;
20283;SDS011;10301;50.832;4.080;2023-05-16T13:08:23;4.65;;;1.20;;
20283;SDS011;10301;50.832;4.080;2023-05-16T13:10:49;7.07;;;1.05;;
20283;SDS011;10301;50.832;4.080;2023-05-16T13:13:15;6.32;;;1.27;;
20283;SDS011;10301;50.832;4.080;2023-05-16T13:15:43;3.53;;;1.00;;
20283;SDS011;10301;50.832;4.080;2023-05-16T13:18:12;8.65;;;1.40;;
20283;SDS011;10301;50.832;4.080;2023-05-16T13:20:38;6.78;;;1.10;;
20283;SDS011;10301;50.832;4.080;2023-05-16T13:23:04;6.68;;;1.02;;
20283;SDS011;10301;50.832;4.080;2023-05-16T13:25:30;5.07;;;1.10;;
20283;SDS011;10301;50.832;4.080;2023-05-16T13:27:56;4.72;;;1.10;;
20283;SDS011;10301;50.832;4.080;2023-05-16T13:30:22;4.05;;;1.10;;
20283;SDS011;10301;50.832;4.080;2023-05-16T13:32:48;5.40;;;1.10;;
20283;SDS011;10301;50.832;4.080;2023-05-16T13:35:16;7.38;;;1.27;;
20283;SDS011;10301;50.832;4.080;2023-05-16T13:37:42;6.53;;;1.40;;
20283;SDS011;10301;50.832;4.080;2023-05-16T13:40:08;6.20;;;0.98;;
20283;SDS011;10301;50.832;4.080;2023-05-16T13:42:34;5.70;;;1.23;;
20283;SDS011;10301;50.832;4.080;2023-05-16T13:45:04;5.53;;;1.13;;
20283;SDS011;10301;50.832;4.080;2023-05-16T13:47:30;6.68;;;1.17;;
20283;SDS011;10301;50.832;4.080;2023-05-16T13:49:59;6.22;;;1.25;;
20283;SDS011;10301;50.832;4.080;2023-05-16T13:52:29;5.30;;;1.27;;
20283;SDS011;10301;50.832;4.080;2023-05-16T13:54:55;5.18;;;1.83;;
20283;SDS011;10301;50.832;4.080;2023-05-16T13:57:21;6.40;;;1.52;;
20283;SDS011;10301;50.832;4.080;2023-05-16T13:59:47;4.32;;;1.15;;
20283;SDS011;10301;50.832;4.080;2023-05-16T14:02:13;7.45;;;1.27;;
20283;SDS011;10301;50.832;4.080;2023-05-16T14:04:39;7.00;;;1.08;;
20283;SDS011;10301;50.832;4.080;2023-05-16T14:07:05;6.85;;;1.20;;
20283;SDS011;10301;50.832;4.080;2023-05-16T14:09:31;7.50;;;1.10;;
20283;SDS011;10301;50.832;4.080;2023-05-16T14:11:59;5.88;;;0.90;;
20283;SDS011;10301;50.832;4.080;2023-05-16T14:14:26;4.57;;;1.00;;
20283;SDS011;10301;50.832;4.080;2023-05-16T14:16:52;7.03;;;1.67;;
20283;SDS011;10301;50.832;4.080;2023-05-16T14:19:18;6.65;;;1.27;;
20283;SDS011;10301;50.832;4.080;2023-05-16T14:21:43;5.22;;;1.17;;
20283;SDS011;10301;50.832;4.080;2023-05-16T14:24:09;6.80;;;1.13;;
20283;SDS011;10301;50.832;4.080;2023-05-16T14:26:35;7.03;;;1.00;;
20283;SDS011;10301;50.832;4.080;2023-05-16T14:29:01;7.15;;;1.17;;
20283;SDS011;10301;50.832;4.080;2023-05-16T14:31:27;4.45;;;1.08;;
20283;SDS011;10301;50.832;4.080;2023-05-16T14:33:53;6.82;;;1.23;;
20283;SDS011;10301;50.832;4.080;2023-05-16T14:36:19;6.80;;;1.40;;
20283;SDS011;10301;50.832;4.080;2023-05-16T14:38:45;5.32;;;1.20;;
20283;SDS011;10301;50.832;4.080;2023-05-16T14:41:13;7.35;;;1.25;;
20283;SDS011;10301;50.832;4.080;2023-05-16T14:43:38;5.35;;;1.27;;
20283;SDS011;10301;50.832;4.080;2023-05-16T14:46:04;5.75;;;1.30;;
20283;SDS011;10301;50.832;4.080;2023-05-16T14:48:30;3.80;;;1.08;;
20283;SDS011;10301;50.832;4.080;2023-05-16T14:50:56;5.50;;;1.05;;
20283;SDS011;10301;50.832;4.080;2023-05-16T14:53:21;4.40;;;1.10;;
20283;SDS011;10301;50.832;4.080;2023-05-16T14:55:47;4.88;;;1.10;;
20283;SDS011;10301;50.832;4.080;2023-05-16T14:58:13;4.70;;;1.05;;
20283;SDS011;10301;50.832;4.080;2023-05-16T15:00:39;4.18;;;1.02;;
20283;SDS011;10301;50.832;4.080;2023-05-16T15:03:05;6.03;;;1.23;;
20283;SDS011;10301;50.832;4.080;2023-05-16T15:05:31;7.07;;;1.30;;
20283;SDS011;10301;50.832;4.080;2023-05-16T15:07:56;3.83;;;0.90;;
20283;SDS011;10301;50.832;4.080;2023-05-16T15:10:22;4.40;;;1.23;;
20283;SDS011;10301;50.832;4.080;2023-05-16T15:12:48;5.80;;;1.10;;
20283;SDS011;10301;50.832;4.080;2023-05-16T15:15:14;3.63;;;1.00;;
20283;SDS011;10301;50.832;4.080;2023-05-16T15:17:40;4.25;;;0.98;;
20283;SDS011;10301;50.832;4.080;2023-05-16T15:20:06;6.53;;;1.50;;
20283;SDS011;10301;50.832;4.080;2023-05-16T15:22:34;4.88;;;1.10;;